createdAt,value
2022-08-30T00:01:30.367Z,11.80
2022-08-30T00:03:59.177Z,12.85
2022-08-30T00:06:29.150Z,11.88
2022-08-30T00:08:59.793Z,13.13
2022-08-30T00:11:30.191Z,12.45
2022-08-30T00:13:58.567Z,13.60
2022-08-30T00:16:27.400Z,12.93
2022-08-30T00:18:57.705Z,13.43
2022-08-30T00:21:27.076Z,12.88
2022-08-30T00:23:55.254Z,13.48
2022-08-30T00:26:24.643Z,12.82
2022-08-30T00:28:52.655Z,12.55
2022-08-30T00:31:20.744Z,13.00
2022-08-30T00:33:48.808Z,13.27
2022-08-30T00:36:16.994Z,12.35
2022-08-30T00:38:45.049Z,11.10
2022-08-30T00:41:13.085Z,11.48
2022-08-30T00:43:42.936Z,12.15
2022-08-30T00:46:11.030Z,11.30
2022-08-30T00:48:43.343Z,12.07
2022-08-30T00:51:13.755Z,12.45
2022-08-30T00:53:45.273Z,12.48
2022-08-30T00:56:14.350Z,12.10
2022-08-30T00:58:49.201Z,11.55
2022-08-30T01:01:18.241Z,11.25
2022-08-30T01:03:46.741Z,10.85
2022-08-30T01:06:16.613Z,11.18
2022-08-30T01:08:45.359Z,11.40
2022-08-30T01:11:16.075Z,11.43
2022-08-30T01:13:47.061Z,10.35
2022-08-30T01:16:16.160Z,10.07
2022-08-30T01:18:45.508Z,11.27
2022-08-30T01:21:21.346Z,11.77
2022-08-30T01:23:54.700Z,11.43
2022-08-30T01:26:25.209Z,10.70
2022-08-30T01:28:57.757Z,11.32
2022-08-30T01:31:26.018Z,10.13
2022-08-30T01:33:54.097Z,12.18
2022-08-30T01:36:22.538Z,11.73
2022-08-30T01:38:55.626Z,11.57
2022-08-30T01:41:26.921Z,11.15
2022-08-30T01:43:56.999Z,11.15
2022-08-30T01:46:28.964Z,11.93
2022-08-30T01:48:58.728Z,11.73
2022-08-30T01:51:30.763Z,12.80
2022-08-30T01:54:00.807Z,12.60
2022-08-30T01:56:30.534Z,11.20
2022-08-30T01:59:02.840Z,11.93
2022-08-30T02:01:33.952Z,11.38
2022-08-30T02:04:02.373Z,10.88
2022-08-30T02:06:30.565Z,11.70
2022-08-30T02:09:00.364Z,12.43
2022-08-30T02:11:28.464Z,11.48
2022-08-30T02:13:56.813Z,11.18
2022-08-30T02:16:25.979Z,11.32
2022-08-30T02:18:56.163Z,11.48
2022-08-30T02:21:24.787Z,11.10
2022-08-30T02:23:53.303Z,11.37
2022-08-30T02:26:23.636Z,11.45
2022-08-30T02:28:52.608Z,11.52
2022-08-30T02:31:22.224Z,11.88
2022-08-30T02:33:52.180Z,11.00
2022-08-30T02:36:21.719Z,11.70
2022-08-30T02:41:19.262Z,10.90
2022-08-30T02:43:48.745Z,11.07
2022-08-30T02:46:17.910Z,10.65
2022-08-30T02:48:46.061Z,10.32
2022-08-30T02:51:15.332Z,10.25
2022-08-30T02:53:45.123Z,11.70
2022-08-30T02:56:14.072Z,10.68
2022-08-30T02:58:42.899Z,10.85
2022-08-30T03:01:14.062Z,11.07
2022-08-30T03:03:43.089Z,11.95
2022-08-30T03:06:11.361Z,12.90
2022-08-30T03:08:39.537Z,12.15
2022-08-30T03:11:08.396Z,12.75
2022-08-30T03:13:36.436Z,12.18
2022-08-30T03:16:04.682Z,10.70
2022-08-30T03:18:34.666Z,11.88
2022-08-30T03:21:02.855Z,11.85
2022-08-30T03:23:31.490Z,11.38
2022-08-30T03:25:59.553Z,10.90
2022-08-30T03:28:27.604Z,10.88
2022-08-30T03:30:55.891Z,11.13
2022-08-30T03:33:23.945Z,9.85
2022-08-30T03:35:54.025Z,10.60
2022-08-30T03:38:22.328Z,10.73
2022-08-30T03:40:50.376Z,9.95
2022-08-30T03:43:18.920Z,11.35
2022-08-30T03:45:47.153Z,11.43
2022-08-30T03:48:15.262Z,11.23
2022-08-30T03:50:43.295Z,10.48
2022-08-30T03:53:13.015Z,11.13
2022-08-30T03:55:41.107Z,11.43
2022-08-30T03:58:09.219Z,11.98
2022-08-30T04:00:37.418Z,10.73
2022-08-30T04:03:05.576Z,10.60
2022-08-30T04:05:33.788Z,10.98
2022-08-30T04:08:01.817Z,10.68
2022-08-30T04:10:31.794Z,12.02
2022-08-30T04:15:27.641Z,10.57
2022-08-30T04:17:55.739Z,11.57
2022-08-30T04:20:23.788Z,11.63
2022-08-30T04:22:54.372Z,11.60
2022-08-30T04:27:53.067Z,10.55
2022-08-30T04:30:22.201Z,11.05
2022-08-30T04:32:50.288Z,11.32
2022-08-30T04:35:18.369Z,11.38
2022-08-30T04:37:46.420Z,11.75
2022-08-30T04:40:15.134Z,11.07
2022-08-30T04:42:44.397Z,13.02
2022-08-30T04:45:16.290Z,11.68
2022-08-30T04:47:45.095Z,11.32
2022-08-30T04:50:15.916Z,10.95
2022-08-30T04:52:44.267Z,11.75
2022-08-30T04:55:16.748Z,12.02
2022-08-30T04:57:47.462Z,12.85
2022-08-30T05:00:17.836Z,11.65
2022-08-30T05:02:45.965Z,12.20
2022-08-30T05:05:32.048Z,11.55
2022-08-30T05:08:00.310Z,12.10
2022-08-30T05:10:28.698Z,12.40
2022-08-30T05:12:56.748Z,12.02
2022-08-30T05:15:26.175Z,11.52
2022-08-30T05:17:54.187Z,11.68
2022-08-30T05:20:22.327Z,11.40
2022-08-30T05:22:53.664Z,13.32
2022-08-30T05:25:24.489Z,12.30
2022-08-30T05:27:53.285Z,12.27
2022-08-30T05:30:22.216Z,12.68
2022-08-30T05:32:51.931Z,11.18
2022-08-30T05:35:25.614Z,12.93
2022-08-30T05:37:56.123Z,12.13
2022-08-30T05:40:24.208Z,12.98
2022-08-30T05:42:52.803Z,13.10
2022-08-30T05:45:20.978Z,11.95
2022-08-30T05:47:49.126Z,11.75
2022-08-30T05:50:19.132Z,12.70
2022-08-30T05:52:48.803Z,12.40
2022-08-30T05:55:18.905Z,12.05
2022-08-30T05:57:46.928Z,12.35
2022-08-30T06:00:18.929Z,12.13
2022-08-30T06:02:47.096Z,11.75
2022-08-30T06:05:15.584Z,12.68
2022-08-30T06:07:45.164Z,12.33
2022-08-30T06:12:43.217Z,11.73
2022-08-30T06:15:12.440Z,11.40
2022-08-30T06:17:40.485Z,11.15
2022-08-30T06:20:10.093Z,11.43
2022-08-30T06:22:38.671Z,11.20
2022-08-30T06:25:09.412Z,11.90
2022-08-30T06:27:37.485Z,12.20
2022-08-30T06:30:08.209Z,11.13
2022-08-30T06:32:36.329Z,11.23
2022-08-30T06:35:04.978Z,11.38
2022-08-30T06:37:33.758Z,10.95
2022-08-30T06:40:03.341Z,8.13
2022-08-30T06:42:34.412Z,10.75
2022-08-30T06:45:11.076Z,11.30
2022-08-30T06:47:40.801Z,10.38
2022-08-30T06:52:41.359Z,10.13
2022-08-30T06:55:11.181Z,11.10
2022-08-30T06:57:40.584Z,11.27
2022-08-30T07:00:12.042Z,11.18
2022-08-30T07:02:40.617Z,10.52
2022-08-30T07:05:13.243Z,10.00
2022-08-30T07:07:44.778Z,10.18
2022-08-30T07:10:14.307Z,9.88
2022-08-30T07:12:43.706Z,9.57
2022-08-30T07:17:58.345Z,10.18
2022-08-30T07:20:26.369Z,9.10
2022-08-30T07:22:54.390Z,9.75
2022-08-30T07:25:22.452Z,9.40
2022-08-30T07:27:52.817Z,8.68
2022-08-30T07:30:20.969Z,8.38
2022-08-30T07:32:49.206Z,8.07
2022-08-30T07:35:17.471Z,8.32
2022-08-30T07:37:45.488Z,8.70
2022-08-30T07:40:14.103Z,7.90
2022-08-30T07:42:42.175Z,7.53
2022-08-30T07:45:12.603Z,7.32
2022-08-30T07:47:42.136Z,7.18
2022-08-30T07:50:10.784Z,6.30
2022-08-30T07:52:38.910Z,6.63
2022-08-30T07:55:08.028Z,6.65
2022-08-30T07:57:36.078Z,5.82
2022-08-30T08:00:05.665Z,6.68
2022-08-30T08:02:36.785Z,6.40
2022-08-30T08:05:05.489Z,6.18
2022-08-30T08:07:33.557Z,6.32
2022-08-30T08:10:01.781Z,5.68
2022-08-30T08:12:30.001Z,5.03
2022-08-30T08:14:58.129Z,4.03
2022-08-30T08:17:26.169Z,4.60
2022-08-30T08:19:55.591Z,5.18
2022-08-30T08:22:23.625Z,4.07
2022-08-30T08:24:51.983Z,4.82
2022-08-30T08:27:20.040Z,3.87
2022-08-30T08:29:48.105Z,2.90
2022-08-30T08:32:16.139Z,3.60
2022-08-30T08:34:44.364Z,3.50
2022-08-30T08:37:13.732Z,3.92
2022-08-30T08:39:41.740Z,4.30
2022-08-30T08:42:17.509Z,4.30
2022-08-30T08:44:55.835Z,4.53
2022-08-30T08:47:31.001Z,3.53
2022-08-30T08:50:04.013Z,3.88
2022-08-30T08:53:04.331Z,4.03
2022-08-30T08:55:33.301Z,4.22
2022-08-30T08:58:02.415Z,4.03
2022-08-30T09:05:32.499Z,4.30
2022-08-30T09:08:07.763Z,4.50
2022-08-30T09:10:54.690Z,3.55
2022-08-30T09:13:23.159Z,3.75
2022-08-30T09:15:54.727Z,4.20
2022-08-30T09:18:45.447Z,4.32
2022-08-30T09:23:51.816Z,4.80
2022-08-30T09:26:30.739Z,4.53
2022-08-30T09:29:00.001Z,4.13
2022-08-30T09:31:30.705Z,4.20
2022-08-30T09:34:03.754Z,4.20
2022-08-30T09:36:35.780Z,3.90
2022-08-30T09:39:07.994Z,4.13
2022-08-30T09:41:41.213Z,3.83
2022-08-30T09:44:12.152Z,4.22
2022-08-30T09:46:47.370Z,4.78
2022-08-30T09:49:33.919Z,4.28
2022-08-30T09:52:18.089Z,4.28
2022-08-30T09:55:04.285Z,3.97
2022-08-30T09:57:42.393Z,4.03
2022-08-30T10:00:16.496Z,4.20
2022-08-30T10:03:26.145Z,3.85
2022-08-30T10:08:52.172Z,4.10
2022-08-30T10:11:29.247Z,4.10
2022-08-30T10:14:19.732Z,3.70
2022-08-30T10:16:55.401Z,3.97
2022-08-30T10:19:37.188Z,4.20
2022-08-30T10:22:10.847Z,4.10
2022-08-30T10:24:43.988Z,4.10
2022-08-30T10:27:19.464Z,4.43
2022-08-30T10:29:52.222Z,3.80
2022-08-30T10:32:26.781Z,3.25
2022-08-30T10:34:58.619Z,4.32
2022-08-30T10:37:29.572Z,3.67
2022-08-30T10:40:22.826Z,3.70
2022-08-30T10:42:57.664Z,3.72
2022-08-30T10:45:28.233Z,3.80
2022-08-30T10:48:01.412Z,3.53
2022-08-30T10:50:39.037Z,3.50
2022-08-30T10:53:15.358Z,4.25
2022-08-30T10:55:50.301Z,3.83
2022-08-30T10:58:20.544Z,3.40
2022-08-30T11:01:01.128Z,3.83
2022-08-30T11:04:14.354Z,3.83
2022-08-30T11:06:53.820Z,3.50
2022-08-30T11:09:40.687Z,3.67
2022-08-30T11:12:25.525Z,3.67
2022-08-30T11:14:56.351Z,3.28
2022-08-30T11:17:31.824Z,3.22
2022-08-30T11:20:03.284Z,3.88
2022-08-30T11:25:53.496Z,3.58
2022-08-30T11:29:01.398Z,3.70
2022-08-30T11:31:41.705Z,3.63
2022-08-30T11:34:11.648Z,3.40
2022-08-30T11:40:02.077Z,3.38
2022-08-30T11:42:44.703Z,3.78
2022-08-30T11:45:52.185Z,3.30
2022-08-30T11:48:53.522Z,3.55
2022-08-30T11:52:08.336Z,3.38
2022-08-30T11:54:53.023Z,2.97
2022-08-30T11:57:31.160Z,3.70
2022-08-30T12:00:06.679Z,3.40
2022-08-30T12:02:50.191Z,3.45
2022-08-30T12:06:01.178Z,3.33
2022-08-30T12:08:55.118Z,3.58
2022-08-30T12:12:02.316Z,3.67
2022-08-30T12:14:49.263Z,3.30
2022-08-30T12:17:42.384Z,3.80
2022-08-30T12:20:22.876Z,3.72
2022-08-30T12:22:51.921Z,3.50
2022-08-30T12:25:29.995Z,3.30
2022-08-30T12:28:18.214Z,3.38
2022-08-30T12:33:24.181Z,3.00
2022-08-30T12:35:59.324Z,2.95
2022-08-30T12:38:28.261Z,3.55
2022-08-30T12:41:00.778Z,3.30
2022-08-30T12:43:40.530Z,3.40
2022-08-30T12:46:15.286Z,3.60
2022-08-30T12:48:44.244Z,3.30
2022-08-30T12:51:28.520Z,3.28
2022-08-30T12:54:05.929Z,3.40
2022-08-30T12:56:53.838Z,3.63
2022-08-30T12:59:52.978Z,3.80
2022-08-30T13:02:25.614Z,3.22
2022-08-30T13:04:55.940Z,3.17
2022-08-30T13:07:33.396Z,3.40
2022-08-30T13:10:11.928Z,3.20
2022-08-30T13:15:28.517Z,3.20
2022-08-30T13:18:12.229Z,4.20
2022-08-30T13:20:40.352Z,3.60
2022-08-30T13:23:10.152Z,3.08
2022-08-30T13:25:39.780Z,3.25
2022-08-30T13:28:09.657Z,3.40
2022-08-30T13:30:38.860Z,3.45
2022-08-30T13:33:06.881Z,3.50
2022-08-30T13:35:34.931Z,3.40
2022-08-30T13:38:04.299Z,3.25
2022-08-30T13:40:32.509Z,3.67
2022-08-30T13:43:00.641Z,3.22
2022-08-30T13:45:45.472Z,3.35
2022-08-30T13:48:15.293Z,3.20
2022-08-30T13:50:45.555Z,3.42
2022-08-30T13:53:13.716Z,3.50
2022-08-30T13:58:13.658Z,3.38
2022-08-30T14:00:43.694Z,4.18
2022-08-30T14:03:11.780Z,3.35
2022-08-30T14:05:50.535Z,3.33
2022-08-30T14:11:19.166Z,4.38
2022-08-30T14:16:40.094Z,3.70
2022-08-30T14:19:10.223Z,3.15
2022-08-30T14:21:39.132Z,3.22
2022-08-30T14:24:07.409Z,3.42
2022-08-30T14:26:37.578Z,3.53
2022-08-30T14:29:09.023Z,2.90
2022-08-30T14:31:39.601Z,3.22
2022-08-30T14:34:09.474Z,3.33
2022-08-30T14:36:42.184Z,3.75
2022-08-30T14:39:15.026Z,3.33
2022-08-30T14:41:44.983Z,3.40
2022-08-30T14:44:13.622Z,3.30
2022-08-30T14:49:12.128Z,3.30
2022-08-30T14:51:40.760Z,3.53
2022-08-30T14:54:09.486Z,3.47
2022-08-30T14:56:39.447Z,3.28
2022-08-30T14:59:08.244Z,3.22
2022-08-30T15:01:38.579Z,3.58
2022-08-30T15:04:09.107Z,3.40
2022-08-30T15:06:38.020Z,3.70
2022-08-30T15:09:07.707Z,3.20
2022-08-30T15:11:35.995Z,3.55
2022-08-30T15:14:04.107Z,3.45
2022-08-30T15:16:34.848Z,3.60
2022-08-30T15:19:04.500Z,3.63
2022-08-30T15:21:35.283Z,3.70
2022-08-30T15:24:05.281Z,3.50
2022-08-30T15:26:34.187Z,3.47
2022-08-30T15:29:02.688Z,3.85
2022-08-30T15:31:32.228Z,3.47
2022-08-30T15:34:01.084Z,3.72
2022-08-30T15:36:30.399Z,3.60
2022-08-30T15:39:00.554Z,3.45
2022-08-30T15:41:29.866Z,4.03
2022-08-30T15:43:59.948Z,3.63
2022-08-30T15:46:31.982Z,3.72
2022-08-30T15:49:02.097Z,3.85
2022-08-30T15:51:41.664Z,3.70
2022-08-30T15:54:12.126Z,3.83
2022-08-30T15:56:41.870Z,3.83
2022-08-30T15:59:10.725Z,3.80
2022-08-30T16:01:39.267Z,3.47
2022-08-30T16:04:07.414Z,3.53
2022-08-30T16:06:38.038Z,3.47
2022-08-30T16:09:07.181Z,3.97
2022-08-30T16:14:07.075Z,3.60
2022-08-30T16:16:37.500Z,3.40
2022-08-30T16:19:06.151Z,3.67
2022-08-30T16:21:36.757Z,3.58
2022-08-30T16:24:06.911Z,4.07
2022-08-30T16:26:38.215Z,3.97
2022-08-30T16:29:08.899Z,3.42
2022-08-30T16:31:38.321Z,3.50
2022-08-30T16:34:07.486Z,3.63
2022-08-30T16:36:37.105Z,4.07
2022-08-30T16:39:08.465Z,4.10
2022-08-30T16:41:38.593Z,3.47
2022-08-30T16:44:07.380Z,4.32
2022-08-30T16:46:37.689Z,4.22
2022-08-30T16:51:38.408Z,3.85
2022-08-30T16:54:08.405Z,4.10
2022-08-30T16:56:38.928Z,4.18
2022-08-30T16:59:11.161Z,4.05
2022-08-30T17:01:42.189Z,3.90
2022-08-30T17:04:15.916Z,4.47
2022-08-30T17:06:46.724Z,3.85
2022-08-30T17:09:15.123Z,4.18
2022-08-30T17:11:44.670Z,4.15
2022-08-30T17:14:13.154Z,4.50
2022-08-30T17:16:42.524Z,4.30
2022-08-30T17:19:13.522Z,4.05
2022-08-30T17:21:41.580Z,4.60
2022-08-30T17:24:09.687Z,4.25
2022-08-30T17:26:40.021Z,3.53
2022-08-30T17:29:09.509Z,4.20
2022-08-30T17:31:41.593Z,4.40
2022-08-30T17:34:09.688Z,4.30
2022-08-30T17:36:39.844Z,4.25
2022-08-30T17:39:11.835Z,4.10
2022-08-30T17:41:45.143Z,5.50
2022-08-30T17:44:20.568Z,5.13
2022-08-30T17:46:48.743Z,4.93
2022-08-30T17:49:17.656Z,4.93
2022-08-30T17:51:47.748Z,4.85
2022-08-30T17:54:16.631Z,5.00
2022-08-30T17:56:46.094Z,4.97
2022-08-30T17:59:15.846Z,4.85
2022-08-30T18:01:46.277Z,4.60
2022-08-30T18:04:19.644Z,5.10
2022-08-30T18:06:48.758Z,4.40
2022-08-30T18:09:17.742Z,5.03
2022-08-30T18:11:46.054Z,4.45
2022-08-30T18:14:16.968Z,5.45
2022-08-30T18:16:47.477Z,5.18
2022-08-30T18:19:21.695Z,4.97
2022-08-30T18:21:49.897Z,4.75
2022-08-30T18:24:18.021Z,5.18
2022-08-30T18:26:46.607Z,4.63
2022-08-30T18:29:14.796Z,4.87
2022-08-30T18:31:55.856Z,4.63
2022-08-30T18:34:24.382Z,4.40
2022-08-30T18:36:52.403Z,4.20
2022-08-30T18:39:21.848Z,5.50
2022-08-30T18:41:50.958Z,4.43
2022-08-30T18:44:29.632Z,5.40
2022-08-30T18:49:35.607Z,4.45
2022-08-30T18:52:06.828Z,4.60
2022-08-30T18:54:38.804Z,4.53
2022-08-30T18:57:08.457Z,5.18
2022-08-30T18:59:38.136Z,5.20
2022-08-30T19:04:56.892Z,5.25
2022-08-30T19:07:29.895Z,4.55
2022-08-30T19:10:02.773Z,5.03
2022-08-30T19:12:31.381Z,4.35
2022-08-30T19:15:00.083Z,5.55
2022-08-30T19:17:29.517Z,5.60
2022-08-30T19:25:15.525Z,5.47
2022-08-30T19:27:43.639Z,5.30
2022-08-30T19:30:20.037Z,4.97
2022-08-30T19:32:52.101Z,6.00
2022-08-30T19:35:21.259Z,5.55
2022-08-30T19:37:49.316Z,5.38
2022-08-30T19:40:19.481Z,5.85
2022-08-30T19:42:49.547Z,6.15
2022-08-30T19:45:21.587Z,5.93
2022-08-30T19:47:53.161Z,5.72
2022-08-30T19:50:22.442Z,7.05
2022-08-30T19:52:54.717Z,5.28
2022-08-30T19:55:28.347Z,6.00
2022-08-30T19:57:58.038Z,5.60
2022-08-30T20:00:26.424Z,4.97
2022-08-30T20:02:55.845Z,5.80
2022-08-30T20:05:24.271Z,5.65
2022-08-30T20:07:52.325Z,5.60
2022-08-30T20:10:20.876Z,5.78
2022-08-30T20:12:54.629Z,5.70
2022-08-30T20:15:23.159Z,5.07
2022-08-30T20:18:05.192Z,5.55
2022-08-30T20:20:36.981Z,5.28
2022-08-30T20:23:06.057Z,6.22
2022-08-30T20:24:30.091Z,5.18
2022-08-30T20:24:33.251Z,5.18
2022-08-30T20:25:34.505Z,5.65
2022-08-30T20:28:03.556Z,5.80
2022-08-30T20:30:32.216Z,6.23
2022-08-30T20:33:04.942Z,6.20
2022-08-30T20:35:36.495Z,5.75
2022-08-30T20:40:36.009Z,6.35
2022-08-30T20:43:04.964Z,6.43
2022-08-30T20:45:34.991Z,5.75
2022-08-30T20:48:03.234Z,6.18
2022-08-30T20:50:31.290Z,6.85
2022-08-30T20:53:00.704Z,6.55
2022-08-30T20:57:56.940Z,6.60
2022-08-30T21:00:27.381Z,6.97
2022-08-30T21:02:55.510Z,6.65
2022-08-30T21:05:23.820Z,6.65
2022-08-30T21:07:51.946Z,6.95
2022-08-30T21:10:23.479Z,6.78
2022-08-30T21:12:51.809Z,6.70
2022-08-30T21:15:36.721Z,6.35
2022-08-30T21:18:06.350Z,6.60
2022-08-30T21:20:34.437Z,7.05
2022-08-30T21:23:02.477Z,6.82
2022-08-30T21:25:33.972Z,7.10
2022-08-30T21:28:03.961Z,6.47
2022-08-30T21:30:32.055Z,6.28
2022-08-30T21:33:00.700Z,6.30
2022-08-30T21:35:46.519Z,7.38
2022-08-30T21:38:14.654Z,7.15
2022-08-30T21:40:44.346Z,6.85
2022-08-30T21:43:12.751Z,7.43
2022-08-30T21:45:41.507Z,6.82
2022-08-30T21:48:10.935Z,5.90
2022-08-30T21:50:39.960Z,6.85
2022-08-30T21:53:08.080Z,7.38
2022-08-30T21:55:36.477Z,7.28
2022-08-30T21:58:05.976Z,6.97
2022-08-30T22:03:02.253Z,7.13
2022-08-30T22:05:30.441Z,7.70
2022-08-30T22:07:58.505Z,8.27
2022-08-30T22:10:31.139Z,7.78
2022-08-30T22:13:01.316Z,7.50
2022-08-30T22:15:32.664Z,6.97
2022-08-30T22:18:00.771Z,6.95
2022-08-30T22:20:30.348Z,8.38
2022-08-30T22:22:59.147Z,7.95
2022-08-30T22:25:27.606Z,7.43
2022-08-30T22:27:55.752Z,7.55
2022-08-30T22:30:23.792Z,8.32
2022-08-30T22:32:53.147Z,7.55
2022-08-30T22:35:23.052Z,7.28
2022-08-30T22:37:53.261Z,7.22
2022-08-30T22:40:22.409Z,8.18
2022-08-30T22:42:50.480Z,7.50
2022-08-30T22:45:18.827Z,8.55
2022-08-30T22:47:47.860Z,7.95
2022-08-30T22:50:17.453Z,7.07
2022-08-30T22:55:13.452Z,7.22
2022-08-30T22:57:41.976Z,7.65
2022-08-30T23:00:15.155Z,7.25
2022-08-30T23:02:44.614Z,8.15
2022-08-30T23:05:13.608Z,7.40
2022-08-30T23:07:43.350Z,8.38
2022-08-30T23:10:13.039Z,8.10
2022-08-30T23:12:41.469Z,8.63
2022-08-30T23:15:13.009Z,8.50
2022-08-30T23:17:41.373Z,8.52
2022-08-30T23:20:11.809Z,7.55
2022-08-30T23:22:39.966Z,7.80
2022-08-30T23:25:28.612Z,9.05
2022-08-30T23:28:19.120Z,8.60
2022-08-30T23:31:06.764Z,7.75
2022-08-30T23:33:52.272Z,8.00
2022-08-30T23:36:37.674Z,8.35
2022-08-30T23:39:23.508Z,7.55
2022-08-30T23:42:10.444Z,7.97
2022-08-30T23:44:55.985Z,7.47
2022-08-30T23:47:41.512Z,8.90
2022-08-30T23:50:27.503Z,8.32
2022-08-30T23:53:13.044Z,8.60
2022-08-30T23:55:59.356Z,7.85
2022-08-30T23:58:46.607Z,8.45
